Southwest Florida International Airport
KRSW : now visible

Airfield :











YOU CAN JOIN US ON...

 
LOGIN :

Register | Disclaimer

   EN    FR    IT 

 









Legend :    VFR   Marginal VFR   IFR   Intensive IFR   Very Intensive IFR
Visi :
Ceiling :
>= 8 km
>= 3000ft
5 to 8 km
1000 to 3000 ft
1500m to 5 km
500 to 1000 ft
800 to 1500m
200 to 500 ft
< 800m
< 200 ft
Symbols :   Thunderstorms  Fog  Heavy snow  Heavy precipitations  Wind > 20 kt






- Airport Elevation : 30 ft
- IATA code : RSW


KRSW - Southwest Florida International

CURRENT METAR :
  • 090353Z AUTO 29004KT 10SM CLR 23/22 A2996 RMK AO2 SLP141 T02330217

EXPIRED METARs :
  • 090253Z 27005KT 10SM CLR 24/22 A2996 RMK AO2 SLP142 T02390217 51014
  • 090153Z 29004KT 10SM CLR 24/22 A2995 RMK AO2 SLP141 T02390217

TAF KRSW
Valid from the 09 at 00:00 until the 10 at 00:00 UTC


082335Z 0900/0924 26010KT P6SM SCT025 SCT250
TEMPO 0910/0914 SCT010 BKN025
FM091400 27012KT P6SM SCT025 SCT035
FM091800 28012G22KT P6SM SCT040 SCT250



MET'MAP, your aeronautical weather chart ! - Copyright ORBIFLY December 2007 - Disclaimer

ORBIFLY MET'MAP TEAM :

Programming & Development : Alexandra Zaïnal
Concept & original design : Baudouin d'Aumeries
Assistance for programming : Marc-Olivier Méhu
Technical & hardware support : Manuel Goepfert

Contact : metmap@orbifly.com




SOURCES & CREDITS :

   NOAA       Earth
Advisory